Aviation Digital Data Service (ADDS)

Output produced by METARs form (0517 UTC 16 February 2019)
found at http://www.aviationweather.gov/metar/data/
 
METAR text: KFAR 160453Z 02005KT 10SM CLR M24/M26 A3019 RMK AO2 SLP256 T12441256
Conditions at: KFAR (FARGO , ND, US) observed 0453 UTC 16 February 2019
Temperature: -24.4°C (-12°F)
Dewpoint: -25.6°C (-14°F) [RH = 90%]
Pressure (altimeter): 30.19 inches Hg (1022.4 mb)
[Sea-level pressure: 1025.6 mb]
Winds: from the NNE (20 degrees) at 6 MPH (5 knots; 2.6 m/s)
Visibility: 10 or more miles (16+ km)
Ceiling: at least 12,000 feet AGL
Clouds: sky clear below 12,000 feet AGL
Weather: no significant weather observed at this time

METAR text: KFAR 160353Z 01003KT 10SM CLR M24/M26 A3022 RMK AO2 SLP264 T12391256
Conditions at: KFAR (FARGO , ND, US) observed 0353 UTC 16 February 2019
Temperature: -23.9°C (-11°F)
Dewpoint: -25.6°C (-14°F) [RH = 86%]
Pressure (altimeter): 30.22 inches Hg (1023.5 mb)
[Sea-level pressure: 1026.4 mb]
Winds: from the N (10 degrees) at 3 MPH (3 knots; 1.5 m/s)
Visibility: 10 or more miles (16+ km)
Ceiling: at least 12,000 feet AGL
Clouds: sky clear below 12,000 feet AGL
Weather: no significant weather observed at this time

METAR text: KFAR 160253Z 27008KT 10SM CLR M24/M26 A3022 RMK AO2 SLP266 T12441261 53000
Conditions at: KFAR (FARGO , ND, US) observed 0253 UTC 16 February 2019
Temperature: -24.4°C (-12°F)
Dewpoint: -26.1°C (-15°F) [RH = 86%]
Pressure (altimeter): 30.22 inches Hg (1023.5 mb)
[Sea-level pressure: 1026.6 mb]
Winds: from the W (270 degrees) at 9 MPH (8 knots; 4.1 m/s)
Visibility: 10 or more miles (16+ km)
Ceiling: at least 12,000 feet AGL
Clouds: sky clear below 12,000 feet AGL
Weather: no significant weather observed at this time

METAR text: KFAR 160153Z 26006KT 10SM CLR M22/M24 A3022 RMK AO2 SLP265 T12221244
Conditions at: KFAR (FARGO , ND, US) observed 0153 UTC 16 February 2019
Temperature: -22.2°C (-8°F)
Dewpoint: -24.4°C (-12°F) [RH = 82%]
Pressure (altimeter): 30.22 inches Hg (1023.5 mb)
[Sea-level pressure: 1026.5 mb]
Winds: from the W (260 degrees) at 7 MPH (6 knots; 3.1 m/s)
Visibility: 10 or more miles (16+ km)
Ceiling: at least 12,000 feet AGL
Clouds: sky clear below 12,000 feet AGL
Weather: no significant weather observed at this time

METAR text: KFAR 160053Z 02006KT 10SM CLR M19/M22 A3021 RMK AO2 SLP261 T11891217
Conditions at: KFAR (FARGO , ND, US) observed 0053 UTC 16 February 2019
Temperature: -18.9°C (-2°F)
Dewpoint: -21.7°C (-7°F) [RH = 78%]
Pressure (altimeter): 30.21 inches Hg (1023.1 mb)
[Sea-level pressure: 1026.1 mb]
Winds: from the NNE (20 degrees) at 7 MPH (6 knots; 3.1 m/s)
Visibility: 10 or more miles (16+ km)
Ceiling: at least 12,000 feet AGL
Clouds: sky clear below 12,000 feet AGL
Weather: no significant weather observed at this time

METAR text: KFAR 152353Z 34005KT 10SM CLR M19/M22 A3022 RMK AO2 SLP264 T11941222 11167 21194 50001
Conditions at: KFAR (FARGO , ND, US) observed 2353 UTC 15 February 2019
Temperature: -19.4°C (-3°F)
Dewpoint: -22.2°C (-8°F) [RH = 78%]
Pressure (altimeter): 30.22 inches Hg (1023.5 mb)
[Sea-level pressure: 1026.4 mb]
Winds: from the NNW (340 degrees) at 6 MPH (5 knots; 2.6 m/s)
Visibility: 10 or more miles (16+ km)
Ceiling: at least 12,000 feet AGL
Clouds: sky clear below 12,000 feet AGL
Weather: no significant weather observed at this time

METAR text: KFAR 152253Z 31005KT 10SM CLR M17/M21 A3022 RMK AO2 SLP263 T11671206
Conditions at: KFAR (FARGO , ND, US) observed 2253 UTC 15 February 2019
Temperature: -16.7°C ( 2°F)
Dewpoint: -20.6°C (-5°F) [RH = 72%]
Pressure (altimeter): 30.22 inches Hg (1023.5 mb)
[Sea-level pressure: 1026.3 mb]
Winds: from the NW (310 degrees) at 6 MPH (5 knots; 2.6 m/s)
Visibility: 10 or more miles (16+ km)
Ceiling: at least 12,000 feet AGL
Clouds: sky clear below 12,000 feet AGL
Weather: no significant weather observed at this time

METAR text: KFAR 152153Z 32007KT 10SM CLR M17/M20 A3022 RMK AO2 SLP261 T11671200
Conditions at: KFAR (FARGO , ND, US) observed 2153 UTC 15 February 2019
Temperature: -16.7°C ( 2°F)
Dewpoint: -20.0°C (-4°F) [RH = 76%]
Pressure (altimeter): 30.22 inches Hg (1023.5 mb)
[Sea-level pressure: 1026.1 mb]
Winds: from the NW (320 degrees) at 8 MPH (7 knots; 3.6 m/s)
Visibility: 10 or more miles (16+ km)
Ceiling: at least 12,000 feet AGL
Clouds: sky clear below 12,000 feet AGL
Weather: no significant weather observed at this time

METAR text: KFAR 152053Z 29008KT 10SM CLR M17/M21 A3021 RMK AO2 SLP261 T11671206 51005
Conditions at: KFAR (FARGO , ND, US) observed 2053 UTC 15 February 2019
Temperature: -16.7°C ( 2°F)
Dewpoint: -20.6°C (-5°F) [RH = 72%]
Pressure (altimeter): 30.21 inches Hg (1023.1 mb)
[Sea-level pressure: 1026.1 mb]
Winds: from the WNW (290 degrees) at 9 MPH (8 knots; 4.1 m/s)
Visibility: 10 or more miles (16+ km)
Ceiling: at least 12,000 feet AGL
Clouds: sky clear below 12,000 feet AGL
Weather: no significant weather observed at this time

METAR text: KFAR 151953Z 28010KT 10SM CLR M17/M21 A3021 RMK AO2 SLP260 T11721211
Conditions at: KFAR (FARGO , ND, US) observed 1953 UTC 15 February 2019
Temperature: -17.2°C ( 1°F)
Dewpoint: -21.1°C (-6°F) [RH = 72%]
Pressure (altimeter): 30.21 inches Hg (1023.1 mb)
[Sea-level pressure: 1026.0 mb]
Winds: from the W (280 degrees) at 12 MPH (10 knots; 5.1 m/s)
Visibility: 10 or more miles (16+ km)
Ceiling: at least 12,000 feet AGL
Clouds: sky clear below 12,000 feet AGL
Weather: no significant weather observed at this time

METAR text: KFAR 151853Z 31011KT 10SM CLR M18/M22 A3020 RMK AO2 SLP256 T11831217
Conditions at: KFAR (FARGO , ND, US) observed 1853 UTC 15 February 2019
Temperature: -18.3°C (-1°F)
Dewpoint: -21.7°C (-7°F) [RH = 75%]
Pressure (altimeter): 30.20 inches Hg (1022.8 mb)
[Sea-level pressure: 1025.6 mb]
Winds: from the NW (310 degrees) at 13 MPH (11 knots; 5.7 m/s)
Visibility: 10 or more miles (16+ km)
Ceiling: at least 12,000 feet AGL
Clouds: sky clear below 12,000 feet AGL
Weather: no significant weather observed at this time

METAR text: KFAR 151753Z 28007KT 10SM CLR M19/M23 A3020 RMK AO2 SLP256 T11891228 11189 21267 51014
Conditions at: KFAR (FARGO , ND, US) observed 1753 UTC 15 February 2019
Temperature: -18.9°C (-2°F)
Dewpoint: -22.8°C (-9°F) [RH = 71%]
Pressure (altimeter): 30.20 inches Hg (1022.8 mb)
[Sea-level pressure: 1025.6 mb]
Winds: from the W (280 degrees) at 8 MPH (7 knots; 3.6 m/s)
Visibility: 10 or more miles (16+ km)
Ceiling: at least 12,000 feet AGL
Clouds: sky clear below 12,000 feet AGL
Weather: no significant weather observed at this time

METAR text: KFAR 151653Z 32007KT 10SM CLR M21/M24 A3019 RMK AO2 SLP252 T12061239
Conditions at: KFAR (FARGO , ND, US) observed 1653 UTC 15 February 2019
Temperature: -20.6°C (-5°F)
Dewpoint: -23.9°C (-11°F) [RH = 75%]
Pressure (altimeter): 30.19 inches Hg (1022.4 mb)
[Sea-level pressure: 1025.2 mb]
Winds: from the NW (320 degrees) at 8 MPH (7 knots; 3.6 m/s)
Visibility: 10 or more miles (16+ km)
Ceiling: at least 12,000 feet AGL
Clouds: sky clear below 12,000 feet AGL
Weather: no significant weather observed at this time

METAR text: KFAR 151553Z 33006KT 10SM CLR M22/M25 A3017 RMK AO2 SLP247 T12171250
Conditions at: KFAR (FARGO , ND, US) observed 1553 UTC 15 February 2019
Temperature: -21.7°C (-7°F)
Dewpoint: -25.0°C (-13°F) [RH = 75%]
Pressure (altimeter): 30.17 inches Hg (1021.8 mb)
[Sea-level pressure: 1024.7 mb]
Winds: from the NNW (330 degrees) at 7 MPH (6 knots; 3.1 m/s)
Visibility: 10 or more miles (16+ km)
Ceiling: at least 12,000 feet AGL
Clouds: sky clear below 12,000 feet AGL
Weather: no significant weather observed at this time

METAR text: KFAR 151453Z 34008KT 10SM CLR M24/M27 A3016 RMK AO2 SLP243 T12441272 51004
Conditions at: KFAR (FARGO , ND, US) observed 1453 UTC 15 February 2019
Temperature: -24.4°C (-12°F)
Dewpoint: -27.2°C (-17°F) [RH = 78%]
Pressure (altimeter): 30.16 inches Hg (1021.4 mb)
[Sea-level pressure: 1024.3 mb]
Winds: from the NNW (340 degrees) at 9 MPH (8 knots; 4.1 m/s)
Visibility: 10 or more miles (16+ km)
Ceiling: at least 12,000 feet AGL
Clouds: sky clear below 12,000 feet AGL
Weather: no significant weather observed at this time

METAR text: KFAR 151353Z 31004KT 10SM CLR M26/M28 A3015 RMK AO2 SLP241 T12611283
Conditions at: KFAR (FARGO , ND, US) observed 1353 UTC 15 February 2019
Temperature: -26.1°C (-15°F)
Dewpoint: -28.3°C (-19°F) [RH = 82%]
Pressure (altimeter): 30.15 inches Hg (1021.1 mb)
[Sea-level pressure: 1024.1 mb]
Winds: from the NW (310 degrees) at 5 MPH (4 knots; 2.1 m/s)
Visibility: 10 or more miles (16+ km)
Ceiling: at least 12,000 feet AGL
Clouds: sky clear below 12,000 feet AGL
Weather: no significant weather observed at this time

METAR text: KFAR 151253Z 26003KT 10SM CLR M27/M29 A3015 RMK AO2 SLP242 T12671289
Conditions at: KFAR (FARGO , ND, US) observed 1253 UTC 15 February 2019
Temperature: -26.7°C (-16°F)
Dewpoint: -28.9°C (-20°F) [RH = 82%]
Pressure (altimeter): 30.15 inches Hg (1021.1 mb)
[Sea-level pressure: 1024.2 mb]
Winds: from the W (260 degrees) at 3 MPH (3 knots; 1.5 m/s)
Visibility: 10 or more miles (16+ km)
Ceiling: at least 12,000 feet AGL
Clouds: sky clear below 12,000 feet AGL
Weather: no significant weather observed at this time

METAR text: KFAR 151153Z 23004KT 10SM CLR M25/M27 A3014 RMK AO2 SLP238 70001 T12501272 11206 21261 53009
Conditions at: KFAR (FARGO , ND, US) observed 1153 UTC 15 February 2019
Temperature: -25.0°C (-13°F)
Dewpoint: -27.2°C (-17°F) [RH = 82%]
Pressure (altimeter): 30.14 inches Hg (1020.7 mb)
[Sea-level pressure: 1023.8 mb]
Winds: from the SW (230 degrees) at 5 MPH (4 knots; 2.1 m/s)
Visibility: 10 or more miles (16+ km)
Ceiling: at least 12,000 feet AGL
Clouds: sky clear below 12,000 feet AGL
Weather: no significant weather observed at this time

METAR text: KFAR 151053Z 33006KT 9SM CLR M22/M25 A3012 RMK AO2 SLP228 T12221250
Conditions at: KFAR (FARGO , ND, US) observed 1053 UTC 15 February 2019
Temperature: -22.2°C (-8°F)
Dewpoint: -25.0°C (-13°F) [RH = 78%]
Pressure (altimeter): 30.12 inches Hg (1020.1 mb)
[Sea-level pressure: 1022.8 mb]
Winds: from the NNW (330 degrees) at 7 MPH (6 knots; 3.1 m/s)
Visibility: 9 miles (14 km)
Ceiling: at least 12,000 feet AGL
Clouds: sky clear below 12,000 feet AGL
Weather: no significant weather observed at this time

METAR text: KFAR 150953Z 32007KT 10SM CLR M23/M25 A3011 RMK AO2 SLP225 T12281250
Conditions at: KFAR (FARGO , ND, US) observed 0953 UTC 15 February 2019
Temperature: -22.8°C (-9°F)
Dewpoint: -25.0°C (-13°F) [RH = 82%]
Pressure (altimeter): 30.11 inches Hg (1019.7 mb)
[Sea-level pressure: 1022.5 mb]
Winds: from the NW (320 degrees) at 8 MPH (7 knots; 3.6 m/s)
Visibility: 10 or more miles (16+ km)
Ceiling: at least 12,000 feet AGL
Clouds: sky clear below 12,000 feet AGL
Weather: no significant weather observed at this time

METAR text: KFAR 150853Z 28008KT 10SM CLR M23/M26 A3011 RMK AO2 SLP226 T12331256 53014
Conditions at: KFAR (FARGO , ND, US) observed 0853 UTC 15 February 2019
Temperature: -23.3°C (-10°F)
Dewpoint: -25.6°C (-14°F) [RH = 81%]
Pressure (altimeter): 30.11 inches Hg (1019.7 mb)
[Sea-level pressure: 1022.6 mb]
Winds: from the W (280 degrees) at 9 MPH (8 knots; 4.1 m/s)
Visibility: 10 or more miles (16+ km)
Ceiling: at least 12,000 feet AGL
Clouds: sky clear below 12,000 feet AGL
Weather: no significant weather observed at this time

METAR text: KFAR 150753Z 30012KT 10SM CLR M21/M24 A3010 RMK AO2 SLP219 T12061239
Conditions at: KFAR (FARGO , ND, US) observed 0753 UTC 15 February 2019
Temperature: -20.6°C (-5°F)
Dewpoint: -23.9°C (-11°F) [RH = 75%]
Pressure (altimeter): 30.10 inches Hg (1019.4 mb)
[Sea-level pressure: 1021.9 mb]
Winds: from the WNW (300 degrees) at 14 MPH (12 knots; 6.2 m/s)
Visibility: 10 or more miles (16+ km)
Ceiling: at least 12,000 feet AGL
Clouds: sky clear below 12,000 feet AGL
Weather: no significant weather observed at this time

METAR text: KFAR 150653Z 31011KT 10SM CLR M21/M24 A3009 RMK AO2 SLP216 T12111239
Conditions at: KFAR (FARGO , ND, US) observed 0653 UTC 15 February 2019
Temperature: -21.1°C (-6°F)
Dewpoint: -23.9°C (-11°F) [RH = 78%]
Pressure (altimeter): 30.09 inches Hg (1019.0 mb)
[Sea-level pressure: 1021.6 mb]
Winds: from the NW (310 degrees) at 13 MPH (11 knots; 5.7 m/s)
Visibility: 10 or more miles (16+ km)
Ceiling: at least 12,000 feet AGL
Clouds: sky clear below 12,000 feet AGL
Weather: no significant weather observed at this time

METAR text: KFAR 150553Z 31012KT 10SM CLR M21/M24 A3007 RMK AO2 SLP211 T12111244 11183 21211 411281211 51007
Conditions at: KFAR (FARGO , ND, US) observed 0553 UTC 15 February 2019
Temperature: -21.1°C (-6°F)
Dewpoint: -24.4°C (-12°F) [RH = 75%]
Pressure (altimeter): 30.07 inches Hg (1018.4 mb)
[Sea-level pressure: 1021.1 mb]
Winds: from the NW (310 degrees) at 14 MPH (12 knots; 6.2 m/s)
Visibility: 10 or more miles (16+ km)
Ceiling: at least 12,000 feet AGL
Clouds: sky clear below 12,000 feet AGL
Weather: no significant weather observed at this time

METAR text: KFAR 150453Z 31014KT 10SM CLR M21/M24 A3007 RMK AO2 SLP208 T12061239
Conditions at: KFAR (FARGO , ND, US) observed 0453 UTC 15 February 2019
Temperature: -20.6°C (-5°F)
Dewpoint: -23.9°C (-11°F) [RH = 75%]
Pressure (altimeter): 30.07 inches Hg (1018.4 mb)
[Sea-level pressure: 1020.8 mb]
Winds: from the NW (310 degrees) at 16 MPH (14 knots; 7.2 m/s)
Visibility: 10 or more miles (16+ km)
Ceiling: at least 12,000 feet AGL
Clouds: sky clear below 12,000 feet AGL
Weather: no significant weather observed at this time

METAR text: KFAR 150353Z 30010KT 10SM CLR M21/M24 A3007 RMK AO2 SLP211 T12111239
Conditions at: KFAR (FARGO , ND, US) observed 0353 UTC 15 February 2019
Temperature: -21.1°C (-6°F)
Dewpoint: -23.9°C (-11°F) [RH = 78%]
Pressure (altimeter): 30.07 inches Hg (1018.4 mb)
[Sea-level pressure: 1021.1 mb]
Winds: from the WNW (300 degrees) at 12 MPH (10 knots; 5.1 m/s)
Visibility: 10 or more miles (16+ km)
Ceiling: at least 12,000 feet AGL
Clouds: sky clear below 12,000 feet AGL
Weather: no significant weather observed at this time

METAR text: KFAR 150253Z 31012KT 10SM SCT022 M20/M23 A3005 RMK AO2 SLP203 T12001233 51014
Conditions at: KFAR (FARGO , ND, US) observed 0253 UTC 15 February 2019
Temperature: -20.0°C (-4°F)
Dewpoint: -23.3°C (-10°F) [RH = 75%]
Pressure (altimeter): 30.05 inches Hg (1017.7 mb)
[Sea-level pressure: 1020.3 mb]
Winds: from the NW (310 degrees) at 14 MPH (12 knots; 6.2 m/s)
Visibility: 10 or more miles (16+ km)
Ceiling: at least 12,000 feet AGL
Clouds: scattered clouds at 2200 feet AGL
Weather: no significant weather observed at this time

METAR text: KFAR 150201Z 31013KT 10SM SCT022 M19/M23 A3004 RMK AO2 T11941228
Conditions at: KFAR (FARGO , ND, US) observed 0201 UTC 15 February 2019
Temperature: -19.4°C (-3°F)
Dewpoint: -22.8°C (-9°F) [RH = 74%]
Pressure (altimeter): 30.04 inches Hg (1017.4 mb)
Winds: from the NW (310 degrees) at 15 MPH (13 knots; 6.7 m/s)
Visibility: 10 or more miles (16+ km)
Ceiling: at least 12,000 feet AGL
Clouds: scattered clouds at 2200 feet AGL
Weather: no significant weather observed at this time

METAR text: KFAR 150153Z 31012KT 10SM BKN022 M19/M23 A3004 RMK AO2 SLP200 T11941228
Conditions at: KFAR (FARGO , ND, US) observed 0153 UTC 15 February 2019
Temperature: -19.4°C (-3°F)
Dewpoint: -22.8°C (-9°F) [RH = 74%]
Pressure (altimeter): 30.04 inches Hg (1017.4 mb)
[Sea-level pressure: 1020.0 mb]
Winds: from the NW (310 degrees) at 14 MPH (12 knots; 6.2 m/s)
Visibility: 10 or more miles (16+ km)
Ceiling: 2200 feet AGL
Clouds: broken clouds at 2200 feet AGL
Weather: no significant weather observed at this time

METAR text: KFAR 150140Z 31012KT 10SM BKN022 M19/M23 A3004 RMK AO2 T11941228
Conditions at: KFAR (FARGO , ND, US) observed 0140 UTC 15 February 2019
Temperature: -19.4°C (-3°F)
Dewpoint: -22.8°C (-9°F) [RH = 74%]
Pressure (altimeter): 30.04 inches Hg (1017.4 mb)
Winds: from the NW (310 degrees) at 14 MPH (12 knots; 6.2 m/s)
Visibility: 10 or more miles (16+ km)
Ceiling: 2200 feet AGL
Clouds: broken clouds at 2200 feet AGL
Weather: no significant weather observed at this time

METAR text: KFAR 150053Z 31014KT 10SM CLR M19/M22 A3004 RMK AO2 SLP197 T11891222
Conditions at: KFAR (FARGO , ND, US) observed 0053 UTC 15 February 2019
Temperature: -18.9°C (-2°F)
Dewpoint: -22.2°C (-8°F) [RH = 75%]
Pressure (altimeter): 30.04 inches Hg (1017.4 mb)
[Sea-level pressure: 1019.7 mb]
Winds: from the NW (310 degrees) at 16 MPH (14 knots; 7.2 m/s)
Visibility: 10 or more miles (16+ km)
Ceiling: at least 12,000 feet AGL
Clouds: sky clear below 12,000 feet AGL
Weather: no significant weather observed at this time

METAR text: KFAR 142353Z 31012KT 10SM CLR M18/M22 A3001 RMK AO2 SLP188 T11831217 11144 21183 51020
Conditions at: KFAR (FARGO , ND, US) observed 2353 UTC 14 February 2019
Temperature: -18.3°C (-1°F)
Dewpoint: -21.7°C (-7°F) [RH = 75%]
Pressure (altimeter): 30.01 inches Hg (1016.3 mb)
[Sea-level pressure: 1018.8 mb]
Winds: from the NW (310 degrees) at 14 MPH (12 knots; 6.2 m/s)
Visibility: 10 or more miles (16+ km)
Ceiling: at least 12,000 feet AGL
Clouds: sky clear below 12,000 feet AGL
Weather: no significant weather observed at this time

METAR text: KFAR 142253Z 31017KT 10SM CLR M17/M21 A2999 RMK AO2 SLP179 T11671206
Conditions at: KFAR (FARGO , ND, US) observed 2253 UTC 14 February 2019
Temperature: -16.7°C ( 2°F)
Dewpoint: -20.6°C (-5°F) [RH = 72%]
Pressure (altimeter): 29.99 inches Hg (1015.7 mb)
[Sea-level pressure: 1017.9 mb]
Winds: from the NW (310 degrees) at 20 MPH (17 knots; 8.7 m/s)
Visibility: 10 or more miles (16+ km)
Ceiling: at least 12,000 feet AGL
Clouds: sky clear below 12,000 feet AGL
Weather: no significant weather observed at this time

METAR text: KFAR 142153Z 31019KT 9SM CLR M17/M21 A2998 RMK AO2 PK WND 30026/2133 SLP175 T11671206
Conditions at: KFAR (FARGO , ND, US) observed 2153 UTC 14 February 2019
Temperature: -16.7°C ( 2°F)
Dewpoint: -20.6°C (-5°F) [RH = 72%]
Pressure (altimeter): 29.98 inches Hg (1015.3 mb)
[Sea-level pressure: 1017.5 mb]
Winds: from the NW (310 degrees) at 22 MPH (19 knots; 9.8 m/s)
Visibility: 9 miles (14 km)
Ceiling: at least 12,000 feet AGL
Clouds: sky clear below 12,000 feet AGL
Weather: no significant weather observed at this time

METAR text: KFAR 142053Z 31020KT 9SM CLR M16/M19 A2995 RMK AO2 PK WND 32027/2003 SLP166 T11561194 53012
Conditions at: KFAR (FARGO , ND, US) observed 2053 UTC 14 February 2019
Temperature: -15.6°C ( 4°F)
Dewpoint: -19.4°C (-3°F) [RH = 73%]
Pressure (altimeter): 29.95 inches Hg (1014.3 mb)
[Sea-level pressure: 1016.6 mb]
Winds: from the NW (310 degrees) at 23 MPH (20 knots; 10.3 m/s)
Visibility: 9 miles (14 km)
Ceiling: at least 12,000 feet AGL
Clouds: sky clear below 12,000 feet AGL
Weather: no significant weather observed at this time

METAR text: KFAR 142007Z 31020KT 9SM FEW023 M16/M19 A2994 RMK AO2 PK WND 32027/2003 T11561189
Conditions at: KFAR (FARGO , ND, US) observed 2007 UTC 14 February 2019
Temperature: -15.6°C ( 4°F)
Dewpoint: -18.9°C (-2°F) [RH = 76%]
Pressure (altimeter): 29.94 inches Hg (1014.0 mb)
Winds: from the NW (310 degrees) at 23 MPH (20 knots; 10.3 m/s)
Visibility: 9 miles (14 km)
Ceiling: at least 12,000 feet AGL
Clouds: few clouds at 2300 feet AGL
Weather: no significant weather observed at this time

METAR text: KFAR 142003Z 31020G27KT 2 1/2SM HZ SCT023 M16/M19 A2993 RMK AO2 PK WND 32027/2003 TWR VIS 7 VIS 2V5 T11561189
Conditions at: KFAR (FARGO , ND, US) observed 2003 UTC 14 February 2019
Temperature: -15.6°C ( 4°F)
Dewpoint: -18.9°C (-2°F) [RH = 76%]
Pressure (altimeter): 29.93 inches Hg (1013.6 mb)
Winds: from the NW (310 degrees) at 23 MPH (20 knots; 10.3 m/s)
gusting to 31 MPH (27 knots; 13.9 m/s)
Visibility: 2.50 miles (4.02 km)
Ceiling: at least 12,000 feet AGL
Clouds: scattered clouds at 2300 feet AGL
Weather: HZ  (haze)

METAR text: KFAR 141953Z 31020KT 3SM HZ BKN023 M16/M19 A2993 RMK AO2 PK WND 33029/1858 TWR VIS 5 SLP158 T11561189
Conditions at: KFAR (FARGO , ND, US) observed 1953 UTC 14 February 2019
Temperature: -15.6°C ( 4°F)
Dewpoint: -18.9°C (-2°F) [RH = 76%]
Pressure (altimeter): 29.93 inches Hg (1013.6 mb)
[Sea-level pressure: 1015.8 mb]
Winds: from the NW (310 degrees) at 23 MPH (20 knots; 10.3 m/s)
Visibility: 3 miles ( 5 km)
Ceiling: 2300 feet AGL
Clouds: broken clouds at 2300 feet AGL
Weather: HZ  (haze)

METAR text: KFAR 141903Z 32020G29KT 3SM BLSN BKN020 M14/M18 A2992 RMK AO2 PK WND 33029/1858 T11441178 $
Conditions at: KFAR (FARGO , ND, US) observed 1903 UTC 14 February 2019
Temperature: -14.4°C ( 6°F)
Dewpoint: -17.8°C (-0°F) [RH = 75%]
Pressure (altimeter): 29.92 inches Hg (1013.3 mb)
Winds: from the NW (320 degrees) at 23 MPH (20 knots; 10.3 m/s)
gusting to 33 MPH (29 knots; 14.9 m/s)
Visibility: 3 miles ( 5 km)
Ceiling: 2000 feet AGL
Clouds: broken clouds at 2000 feet AGL
Weather: BLSN  (blowing snow)
SOME DATA ABOVE MAY BE INACCURATE!!!
"$" is an indication the sensor requires maintenance

METAR text: KFAR 141853Z 32021KT 3SM BLSN FEW014 SCT020 M14/M18 A2991 RMK AO2 PK WND 32031/1824 SLP152 T11441178 $
Conditions at: KFAR (FARGO , ND, US) observed 1853 UTC 14 February 2019
Temperature: -14.4°C ( 6°F)
Dewpoint: -17.8°C (-0°F) [RH = 75%]
Pressure (altimeter): 29.91 inches Hg (1013.0 mb)
[Sea-level pressure: 1015.2 mb]
Winds: from the NW (320 degrees) at 24 MPH (21 knots; 10.8 m/s)
Visibility: 3 miles ( 5 km)
Ceiling: at least 12,000 feet AGL
Clouds: few clouds at 1400 feet AGL
scattered clouds at 2000 feet AGL
Weather: BLSN  (blowing snow)
SOME DATA ABOVE MAY BE INACCURATE!!!
"$" is an indication the sensor requires maintenance

METAR text: KFAR 141849Z 32021KT 3SM BLSN SCT020 M14/M18 A2991 RMK AO2 PK WND 32031/1824 $
Conditions at: KFAR (FARGO , ND, US) observed 1849 UTC 14 February 2019
Temperature: -14.0°C ( 7°F)
Dewpoint: -18.0°C (-0°F) [RH = 72%]
Pressure (altimeter): 29.91 inches Hg (1013.0 mb)
Winds: from the NW (320 degrees) at 24 MPH (21 knots; 10.8 m/s)
Visibility: 3 miles ( 5 km)
Ceiling: at least 12,000 feet AGL
Clouds: scattered clouds at 2000 feet AGL
Weather: BLSN  (blowing snow)
SOME DATA ABOVE MAY BE INACCURATE!!!
"$" is an indication the sensor requires maintenance

METAR text: KFAR 141832Z 33022KT 3SM BLSN FEW014 BKN020 M14/M18 A2991 RMK AO2 PK WND 32031/1824 T11441178
Conditions at: KFAR (FARGO , ND, US) observed 1832 UTC 14 February 2019
Temperature: -14.4°C ( 6°F)
Dewpoint: -17.8°C (-0°F) [RH = 75%]
Pressure (altimeter): 29.91 inches Hg (1013.0 mb)
Winds: from the NNW (330 degrees) at 25 MPH (22 knots; 11.3 m/s)
Visibility: 3 miles ( 5 km)
Ceiling: 2000 feet AGL
Clouds: few clouds at 1400 feet AGL
broken clouds at 2000 feet AGL
Weather: BLSN  (blowing snow)

METAR text: KFAR 141816Z 33022G28KT 1 1/2SM BLSN SCT014 OVC019 M14/M18 A2990 RMK AO2 PK WND 33029/1757 T11441178
Conditions at: KFAR (FARGO , ND, US) observed 1816 UTC 14 February 2019
Temperature: -14.4°C ( 6°F)
Dewpoint: -17.8°C (-0°F) [RH = 75%]
Pressure (altimeter): 29.90 inches Hg (1012.6 mb)
Winds: from the NNW (330 degrees) at 25 MPH (22 knots; 11.3 m/s)
gusting to 32 MPH (28 knots; 14.4 m/s)
Visibility: 1.50 miles (2.41 km)
Ceiling: 1900 feet AGL
Clouds: scattered clouds at 1400 feet AGL
overcast cloud deck at 1900 feet AGL
Weather: BLSN  (blowing snow)

METAR text: KFAR 141806Z 33020G29KT 1SM BLSN BKN014 BKN019 M14/M18 A2990 RMK AO2 PK WND 33029/1757 TWR VIS 5 T11441178
Conditions at: KFAR (FARGO , ND, US) observed 1806 UTC 14 February 2019
Temperature: -14.4°C ( 6°F)
Dewpoint: -17.8°C (-0°F) [RH = 75%]
Pressure (altimeter): 29.90 inches Hg (1012.6 mb)
Winds: from the NNW (330 degrees) at 23 MPH (20 knots; 10.3 m/s)
gusting to 33 MPH (29 knots; 14.9 m/s)
Visibility: 1.00 miles (1.61 km)
Ceiling: 1400 feet AGL
Clouds: broken clouds at 1400 feet AGL
broken clouds at 1900 feet AGL
Weather: BLSN  (blowing snow)

METAR text: KFAR 141800Z 34021G29KT 3/4SM BLSN VV015 M15/M18 A2990 RMK AO2 PK WND 33029/1757 T11501178
Conditions at: KFAR (FARGO , ND, US) observed 1800 UTC 14 February 2019
Temperature: -15.0°C ( 5°F)
Dewpoint: -17.8°C (-0°F) [RH = 79%]
Pressure (altimeter): 29.90 inches Hg (1012.6 mb)
Winds: from the NNW (340 degrees) at 24 MPH (21 knots; 10.8 m/s)
gusting to 33 MPH (29 knots; 14.9 m/s)
Visibility: 0.75 miles (1.21 km)
Ceiling: indefinite ceiling with vertical visibility of 1500 feet AGL
Clouds: obscured sky
Weather: BLSN  (blowing snow)

METAR text: KFAR 141753Z 34018G30KT 5SM BLSN BKN019 M15/M18 A2989 RMK AO2 PK WND 33030/1744 UPB1655E1657B17E19SNE1655 SLP145 P0000 60001 T11501178 11150 21167 51029
Conditions at: KFAR (FARGO , ND, US) observed 1753 UTC 14 February 2019
Temperature: -15.0°C ( 5°F)
Dewpoint: -17.8°C (-0°F) [RH = 79%]
Pressure (altimeter): 29.89 inches Hg (1012.3 mb)
[Sea-level pressure: 1014.5 mb]
Winds: from the NNW (340 degrees) at 21 MPH (18 knots; 9.3 m/s)
gusting to 34 MPH (30 knots; 15.4 m/s)
Visibility: 5 miles ( 8 km)
Ceiling: 1900 feet AGL
Clouds: broken clouds at 1900 feet AGL
Weather: BLSN  (blowing snow)

Forecast for: KFAR (FARGO , ND, US)
Text: KFAR 152324Z 1600/1624 VRB05KT P6SM FEW250
Forecast period: 0000 UTC 16 February 2019 to 0000 UTC 17 February 2019
Forecast type: FROM: standard forecast or significant change
Winds: variable direction winds at 6 MPH (5 knots; 2.6 m/s)
Visibility: 6 or more miles 10+ km)
Ceiling: at least 12,000 feet AGL
Clouds: few clouds at 25000 feet AGL
Weather: no significant weather forecast for this period